sensor_id;sensor_type;location;lat;lon;timestamp;pressure;altitude;pressure_sealevel;temperature;humidity
65614;BME280;52283;49.292;10.572;2022-07-21T00:00:17;96839.56;;;18.47;100.00
65614;BME280;52283;49.292;10.572;2022-07-21T00:02:44;96830.66;;;18.43;100.00
65614;BME280;52283;49.292;10.572;2022-07-21T00:05:10;96825.31;;;18.40;100.00
65614;BME280;52283;49.292;10.572;2022-07-21T00:07:40;96802.91;;;18.42;100.00
65614;BME280;52283;49.292;10.572;2022-07-21T00:10:16;96792.47;;;18.37;100.00
65614;BME280;52283;49.292;10.572;2022-07-21T00:12:43;96781.91;;;18.37;100.00
65614;BME280;52283;49.292;10.572;2022-07-21T00:15:13;96782.25;;;18.34;100.00
65614;BME280;52283;49.292;10.572;2022-07-21T00:17:40;96767.66;;;18.29;100.00
65614;BME280;52283;49.292;10.572;2022-07-21T00:20:08;96759.72;;;18.28;100.00
65614;BME280;52283;49.292;10.572;2022-07-21T00:22:35;96757.31;;;18.32;100.00
65614;BME280;52283;49.292;10.572;2022-07-21T00:25:02;96742.72;;;18.75;100.00
65614;BME280;52283;49.292;10.572;2022-07-21T00:27:29;96700.72;;;18.66;100.00
65614;BME280;52283;49.292;10.572;2022-07-21T00:29:55;96682.50;;;18.54;100.00
65614;BME280;52283;49.292;10.572;2022-07-21T00:32:23;96678.28;;;18.68;100.00
65614;BME280;52283;49.292;10.572;2022-07-21T00:34:50;96673.94;;;18.67;100.00
65614;BME280;52283;49.292;10.572;2022-07-21T00:37:16;96672.78;;;18.63;100.00
65614;BME280;52283;49.292;10.572;2022-07-21T00:39:43;96660.94;;;18.72;100.00
65614;BME280;52283;49.292;10.572;2022-07-21T00:42:19;96644.84;;;18.87;100.00
65614;BME280;52283;49.292;10.572;2022-07-21T00:44:46;96656.13;;;18.38;100.00
65614;BME280;52283;49.292;10.572;2022-07-21T00:47:13;96660.59;;;18.13;100.00
65614;BME280;52283;49.292;10.572;2022-07-21T00:49:40;96685.63;;;18.29;100.00
65614;BME280;52283;49.292;10.572;2022-07-21T00:52:07;96693.25;;;18.35;100.00
65614;BME280;52283;49.292;10.572;2022-07-21T00:54:34;96699.22;;;18.31;100.00
65614;BME280;52283;49.292;10.572;2022-07-21T00:57:00;96701.59;;;18.40;100.00
65614;BME280;52283;49.292;10.572;2022-07-21T00:59:28;96706.91;;;18.44;100.00
65614;BME280;52283;49.292;10.572;2022-07-21T01:01:55;96709.59;;;18.49;100.00
65614;BME280;52283;49.292;10.572;2022-07-21T01:04:22;96719.28;;;18.54;100.00
65614;BME280;52283;49.292;10.572;2022-07-21T01:06:50;96721.78;;;18.57;100.00
65614;BME280;52283;49.292;10.572;2022-07-21T01:09:17;96724.03;;;18.59;100.00
65614;BME280;52283;49.292;10.572;2022-07-21T01:11:44;96722.63;;;18.66;100.00
65614;BME280;52283;49.292;10.572;2022-07-21T01:14:10;96723.16;;;18.64;100.00
65614;BME280;52283;49.292;10.572;2022-07-21T01:16:38;96723.72;;;18.63;100.00
65614;BME280;52283;49.292;10.572;2022-07-21T01:19:06;96728.16;;;18.37;100.00
65614;BME280;52283;49.292;10.572;2022-07-21T01:21:35;96714.25;;;18.26;100.00
65614;BME280;52283;49.292;10.572;2022-07-21T01:24:04;96719.88;;;18.39;100.00
65614;BME280;52283;49.292;10.572;2022-07-21T01:26:31;96722.91;;;18.41;100.00
65614;BME280;52283;49.292;10.572;2022-07-21T01:29:05;96738.03;;;18.44;100.00
65614;BME280;52283;49.292;10.572;2022-07-21T01:31:31;96738.03;;;18.44;100.00
65614;BME280;52283;49.292;10.572;2022-07-21T01:33:58;96723.25;;;18.04;100.00
65614;BME280;52283;49.292;10.572;2022-07-21T01:36:24;96727.19;;;17.87;100.00
65614;BME280;52283;49.292;10.572;2022-07-21T01:38:52;96732.06;;;18.00;100.00
65614;BME280;52283;49.292;10.572;2022-07-21T01:41:36;96724.34;;;18.14;100.00
65614;BME280;52283;49.292;10.572;2022-07-21T01:44:05;96727.94;;;18.01;100.00
65614;BME280;52283;49.292;10.572;2022-07-21T01:46:33;96723.75;;;17.81;100.00
65614;BME280;52283;49.292;10.572;2022-07-21T01:49:00;96726.91;;;17.78;100.00
65614;BME280;52283;49.292;10.572;2022-07-21T01:51:26;96717.13;;;17.79;100.00
65614;BME280;52283;49.292;10.572;2022-07-21T01:53:54;96709.53;;;17.74;100.00
65614;BME280;52283;49.292;10.572;2022-07-21T01:56:22;96719.84;;;17.71;100.00
65614;BME280;52283;49.292;10.572;2022-07-21T01:58:51;96727.34;;;17.55;100.00
65614;BME280;52283;49.292;10.572;2022-07-21T02:01:18;96721.69;;;17.42;100.00
65614;BME280;52283;49.292;10.572;2022-07-21T02:03:44;96720.81;;;17.34;100.00
65614;BME280;52283;49.292;10.572;2022-07-21T02:06:11;96724.19;;;17.32;100.00
65614;BME280;52283;49.292;10.572;2022-07-21T02:08:38;96736.78;;;17.31;100.00
65614;BME280;52283;49.292;10.572;2022-07-21T02:11:09;96736.25;;;17.33;100.00
65614;BME280;52283;49.292;10.572;2022-07-21T02:13:35;96731.56;;;17.35;100.00
65614;BME280;52283;49.292;10.572;2022-07-21T02:16:02;96726.47;;;17.34;100.00
65614;BME280;52283;49.292;10.572;2022-07-21T02:18:29;96731.03;;;17.37;100.00
65614;BME280;52283;49.292;10.572;2022-07-21T02:20:56;96732.97;;;17.42;100.00
65614;BME280;52283;49.292;10.572;2022-07-21T02:23:24;96735.03;;;17.42;100.00
65614;BME280;52283;49.292;10.572;2022-07-21T02:25:51;96731.25;;;17.39;100.00
65614;BME280;52283;49.292;10.572;2022-07-21T02:28:19;96733.53;;;17.41;100.00
65614;BME280;52283;49.292;10.572;2022-07-21T02:30:46;96739.72;;;17.39;100.00
65614;BME280;52283;49.292;10.572;2022-07-21T02:33:12;96737.97;;;17.36;100.00
65614;BME280;52283;49.292;10.572;2022-07-21T02:35:39;96750.47;;;17.41;100.00
65614;BME280;52283;49.292;10.572;2022-07-21T02:38:06;96754.59;;;17.40;100.00
65614;BME280;52283;49.292;10.572;2022-07-21T02:40:33;96761.22;;;17.42;100.00
65614;BME280;52283;49.292;10.572;2022-07-21T02:43:00;96763.94;;;17.34;100.00
65614;BME280;52283;49.292;10.572;2022-07-21T02:45:28;96753.72;;;17.31;100.00
65614;BME280;52283;49.292;10.572;2022-07-21T02:47:57;96752.44;;;17.32;100.00
65614;BME280;52283;49.292;10.572;2022-07-21T02:50:25;96750.16;;;17.31;100.00
65614;BME280;52283;49.292;10.572;2022-07-21T02:52:53;96753.19;;;17.33;100.00
65614;BME280;52283;49.292;10.572;2022-07-21T02:55:21;96759.81;;;17.35;100.00
65614;BME280;52283;49.292;10.572;2022-07-21T02:57:47;96763.19;;;17.34;100.00
65614;BME280;52283;49.292;10.572;2022-07-21T03:00:15;96786.75;;;17.36;100.00
65614;BME280;52283;49.292;10.572;2022-07-21T03:02:43;96790.56;;;17.39;100.00
65614;BME280;52283;49.292;10.572;2022-07-21T03:05:09;96787.94;;;17.41;100.00
65614;BME280;52283;49.292;10.572;2022-07-21T03:07:36;96800.22;;;17.44;100.00
65614;BME280;52283;49.292;10.572;2022-07-21T03:10:03;96807.84;;;17.49;100.00
65614;BME280;52283;49.292;10.572;2022-07-21T03:12:30;96825.25;;;17.53;100.00
65614;BME280;52283;49.292;10.572;2022-07-21T03:14:56;96829.06;;;17.55;100.00
65614;BME280;52283;49.292;10.572;2022-07-21T03:17:23;96830.25;;;17.60;100.00
65614;BME280;52283;49.292;10.572;2022-07-21T03:19:50;96832.19;;;17.65;100.00
65614;BME280;52283;49.292;10.572;2022-07-21T03:22:17;96844.50;;;17.67;100.00
65614;BME280;52283;49.292;10.572;2022-07-21T03:24:43;96842.91;;;17.72;100.00
65614;BME280;52283;49.292;10.572;2022-07-21T03:27:10;96840.28;;;17.74;100.00
65614;BME280;52283;49.292;10.572;2022-07-21T03:29:36;96834.97;;;17.84;100.00
65614;BME280;52283;49.292;10.572;2022-07-21T03:32:03;96824.63;;;17.86;100.00
65614;BME280;52283;49.292;10.572;2022-07-21T03:34:30;96832.78;;;17.90;100.00
65614;BME280;52283;49.292;10.572;2022-07-21T03:36:57;96828.13;;;17.92;100.00
65614;BME280;52283;49.292;10.572;2022-07-21T03:39:24;96831.03;;;17.87;100.00
65614;BME280;52283;49.292;10.572;2022-07-21T03:41:51;96828.44;;;17.89;100.00
65614;BME280;52283;49.292;10.572;2022-07-21T03:44:17;96825.06;;;17.90;100.00
65614;BME280;52283;49.292;10.572;2022-07-21T03:46:46;96832.56;;;17.88;100.00
65614;BME280;52283;49.292;10.572;2022-07-21T03:49:12;96824.53;;;17.92;100.00
65614;BME280;52283;49.292;10.572;2022-07-21T03:51:39;96820.94;;;17.91;100.00
65614;BME280;52283;49.292;10.572;2022-07-21T03:54:07;96822.69;;;17.94;100.00
65614;BME280;52283;49.292;10.572;2022-07-21T03:56:33;96830.94;;;17.92;100.00
65614;BME280;52283;49.292;10.572;2022-07-21T03:59:00;96831.72;;;17.93;100.00
65614;BME280;52283;49.292;10.572;2022-07-21T04:01:26;96823.00;;;17.91;100.00
65614;BME280;52283;49.292;10.572;2022-07-21T04:03:53;96840.19;;;17.93;100.00
65614;BME280;52283;49.292;10.572;2022-07-21T04:06:19;96840.19;;;17.93;100.00
65614;BME280;52283;49.292;10.572;2022-07-21T04:08:45;96854.53;;;17.95;100.00
65614;BME280;52283;49.292;10.572;2022-07-21T04:11:13;96856.59;;;17.94;100.00
65614;BME280;52283;49.292;10.572;2022-07-21T04:13:40;96860.28;;;17.89;100.00
65614;BME280;52283;49.292;10.572;2022-07-21T04:16:07;96862.69;;;17.85;100.00
65614;BME280;52283;49.292;10.572;2022-07-21T04:18:33;96867.78;;;17.87;100.00
65614;BME280;52283;49.292;10.572;2022-07-21T04:21:00;96862.69;;;17.85;100.00
65614;BME280;52283;49.292;10.572;2022-07-21T04:23:26;96862.69;;;17.85;100.00
65614;BME280;52283;49.292;10.572;2022-07-21T04:25:53;96857.34;;;17.82;100.00
65614;BME280;52283;49.292;10.572;2022-07-21T04:28:21;96858.88;;;17.83;100.00
65614;BME280;52283;49.292;10.572;2022-07-21T04:30:47;96853.00;;;17.81;100.00
65614;BME280;52283;49.292;10.572;2022-07-21T04:33:14;96858.88;;;17.83;100.00
65614;BME280;52283;49.292;10.572;2022-07-21T04:35:41;96862.25;;;17.81;100.00
65614;BME280;52283;49.292;10.572;2022-07-21T04:38:08;96868.53;;;17.87;100.00
65614;BME280;52283;49.292;10.572;2022-07-21T04:40:35;96877.50;;;17.91;100.00
65614;BME280;52283;49.292;10.572;2022-07-21T04:43:02;96877.78;;;17.88;100.00
65614;BME280;52283;49.292;10.572;2022-07-21T04:45:30;96879.31;;;17.89;100.00
65614;BME280;52283;49.292;10.572;2022-07-21T04:47:56;96887.34;;;17.85;100.00
65614;BME280;52283;49.292;10.572;2022-07-21T04:50:24;96884.41;;;17.90;100.00
65614;BME280;52283;49.292;10.572;2022-07-21T04:52:51;96892.59;;;17.94;100.00
65614;BME280;52283;49.292;10.572;2022-07-21T04:55:19;96895.50;;;17.88;100.00
65614;BME280;52283;49.292;10.572;2022-07-21T04:57:48;96906.19;;;17.95;100.00
65614;BME280;52283;49.292;10.572;2022-07-21T05:00:16;96904.88;;;17.96;100.00
65614;BME280;52283;49.292;10.572;2022-07-21T05:02:45;96900.75;;;17.97;100.00
65614;BME280;52283;49.292;10.572;2022-07-21T05:05:12;96911.19;;;18.03;100.00
65614;BME280;52283;49.292;10.572;2022-07-21T05:07:39;96915.09;;;18.00;100.00
65614;BME280;52283;49.292;10.572;2022-07-21T05:10:07;96922.94;;;18.07;100.00
65614;BME280;52283;49.292;10.572;2022-07-21T05:12:33;96916.09;;;18.02;100.00
65614;BME280;52283;49.292;10.572;2022-07-21T05:15:00;96919.88;;;18.05;100.00
65614;BME280;52283;49.292;10.572;2022-07-21T05:17:27;96940.22;;;18.03;100.00
65614;BME280;52283;49.292;10.572;2022-07-21T05:19:55;96922.41;;;17.95;100.00
65614;BME280;52283;49.292;10.572;2022-07-21T05:22:21;96922.63;;;17.97;100.00
65614;BME280;52283;49.292;10.572;2022-07-21T05:24:48;96925.34;;;18.03;100.00
65614;BME280;52283;49.292;10.572;2022-07-21T05:27:15;96925.88;;;18.01;100.00
65614;BME280;52283;49.292;10.572;2022-07-21T05:29:42;96920.75;;;18.00;100.00
65614;BME280;52283;49.292;10.572;2022-07-21T05:32:08;96931.09;;;17.97;100.00
65614;BME280;52283;49.292;10.572;2022-07-21T05:34:35;96927.41;;;18.02;100.00
65614;BME280;52283;49.292;10.572;2022-07-21T05:37:02;96939.13;;;18.06;100.00
65614;BME280;52283;49.292;10.572;2022-07-21T05:39:29;96940.78;;;18.02;100.00
65614;BME280;52283;49.292;10.572;2022-07-21T05:41:56;96934.69;;;17.97;100.00
65614;BME280;52283;49.292;10.572;2022-07-21T05:44:23;96941.31;;;18.00;100.00
65614;BME280;52283;49.292;10.572;2022-07-21T05:46:49;96946.75;;;17.98;100.00
65614;BME280;52283;49.292;10.572;2022-07-21T05:49:16;96953.06;;;18.04;100.00
65614;BME280;52283;49.292;10.572;2022-07-21T05:51:42;96956.88;;;18.07;100.00
65614;BME280;52283;49.292;10.572;2022-07-21T05:54:10;96956.31;;;18.08;100.00
65614;BME280;52283;49.292;10.572;2022-07-21T05:56:36;96954.47;;;18.11;100.00
65614;BME280;52283;49.292;10.572;2022-07-21T05:59:03;96959.28;;;18.16;100.00
65614;BME280;52283;49.292;10.572;2022-07-21T06:01:29;96954.50;;;18.24;100.00
65614;BME280;52283;49.292;10.572;2022-07-21T06:03:56;96954.84;;;18.34;100.00
65614;BME280;52283;49.292;10.572;2022-07-21T06:06:23;96960.59;;;18.28;100.00
65614;BME280;52283;49.292;10.572;2022-07-21T06:08:49;96958.50;;;18.28;100.00
65614;BME280;52283;49.292;10.572;2022-07-21T06:11:19;96960.78;;;18.30;100.00
65614;BME280;52283;49.292;10.572;2022-07-21T06:13:46;96961.56;;;18.31;100.00
65614;BME280;52283;49.292;10.572;2022-07-21T06:16:13;96960.69;;;18.22;100.00
65614;BME280;52283;49.292;10.572;2022-07-21T06:18:40;96969.50;;;18.19;100.00
65614;BME280;52283;49.292;10.572;2022-07-21T06:21:06;96964.94;;;18.29;100.00
65614;BME280;52283;49.292;10.572;2022-07-21T06:23:33;96964.16;;;18.28;100.00
65614;BME280;52283;49.292;10.572;2022-07-21T06:25:59;96959.59;;;18.25;100.00
65614;BME280;52283;49.292;10.572;2022-07-21T06:28:27;96967.34;;;18.25;100.00
65614;BME280;52283;49.292;10.572;2022-07-21T06:30:54;96964.84;;;18.35;100.00
65614;BME280;52283;49.292;10.572;2022-07-21T06:33:21;96958.44;;;18.34;100.00
65614;BME280;52283;49.292;10.572;2022-07-21T06:35:47;96962.78;;;18.35;100.00
65614;BME280;52283;49.292;10.572;2022-07-21T06:38:14;96963.63;;;18.43;100.00
65614;BME280;52283;49.292;10.572;2022-07-21T06:40:41;96961.13;;;18.40;100.00
65614;BME280;52283;49.292;10.572;2022-07-21T06:43:07;96974.94;;;18.30;100.00
65614;BME280;52283;49.292;10.572;2022-07-21T06:45:35;96965.47;;;18.27;100.00
65614;BME280;52283;49.292;10.572;2022-07-21T06:48:03;96971.25;;;18.35;100.00
65614;BME280;52283;49.292;10.572;2022-07-21T06:50:30;96975.50;;;18.28;100.00
65614;BME280;52283;49.292;10.572;2022-07-21T06:52:56;96971.91;;;18.28;100.00
65614;BME280;52283;49.292;10.572;2022-07-21T06:55:23;96978.78;;;18.33;100.00
65614;BME280;52283;49.292;10.572;2022-07-21T06:57:49;96986.06;;;18.41;100.00
65614;BME280;52283;49.292;10.572;2022-07-21T07:00:17;96996.16;;;18.50;100.00
65614;BME280;52283;49.292;10.572;2022-07-21T07:02:45;96997.38;;;18.41;100.00
65614;BME280;52283;49.292;10.572;2022-07-21T07:05:11;97002.16;;;18.46;100.00
65614;BME280;52283;49.292;10.572;2022-07-21T07:07:38;97007.63;;;18.57;100.00
65614;BME280;52283;49.292;10.572;2022-07-21T07:10:05;97013.28;;;18.57;100.00
65614;BME280;52283;49.292;10.572;2022-07-21T07:12:32;97016.22;;;18.65;100.00
65614;BME280;52283;49.292;10.572;2022-07-21T07:14:59;97017.84;;;18.74;100.00
65614;BME280;52283;49.292;10.572;2022-07-21T07:17:25;97016.78;;;18.77;100.00
65614;BME280;52283;49.292;10.572;2022-07-21T07:19:53;97015.91;;;18.95;100.00
65614;BME280;52283;49.292;10.572;2022-07-21T07:22:20;97011.72;;;19.09;100.00
65614;BME280;52283;49.292;10.572;2022-07-21T07:24:46;97018.53;;;19.27;100.00
65614;BME280;52283;49.292;10.572;2022-07-21T07:27:12;97013.13;;;19.16;100.00
65614;BME280;52283;49.292;10.572;2022-07-21T07:29:39;97016.59;;;19.22;100.00
65614;BME280;52283;49.292;10.572;2022-07-21T07:32:06;97009.47;;;19.29;100.00
65614;BME280;52283;49.292;10.572;2022-07-21T07:34:32;97007.88;;;19.54;100.00
65614;BME280;52283;49.292;10.572;2022-07-21T07:37:00;97011.84;;;19.72;100.00
65614;BME280;52283;49.292;10.572;2022-07-21T07:39:26;97014.34;;;19.96;100.00
65614;BME280;52283;49.292;10.572;2022-07-21T07:41:53;97015.75;;;19.82;99.39
65614;BME280;52283;49.292;10.572;2022-07-21T07:44:20;97008.81;;;19.70;99.38
65614;BME280;52283;49.292;10.572;2022-07-21T07:46:47;97014.97;;;20.02;97.09
65614;BME280;52283;49.292;10.572;2022-07-21T07:49:14;97010.53;;;20.15;95.24
65614;BME280;52283;49.292;10.572;2022-07-21T07:51:40;97007.69;;;20.15;96.52
65614;BME280;52283;49.292;10.572;2022-07-21T07:54:08;97013.16;;;20.13;95.49
65614;BME280;52283;49.292;10.572;2022-07-21T07:56:35;97020.09;;;20.04;92.48
65614;BME280;52283;49.292;10.572;2022-07-21T07:59:01;97010.53;;;20.15;92.02
65614;BME280;52283;49.292;10.572;2022-07-21T08:01:28;97011.00;;;20.47;87.39
65614;BME280;52283;49.292;10.572;2022-07-21T08:03:54;97012.53;;;20.27;91.45
65614;BME280;52283;49.292;10.572;2022-07-21T08:06:21;97018.22;;;20.27;89.85
65614;BME280;52283;49.292;10.572;2022-07-21T08:08:48;97018.06;;;20.12;90.21
65614;BME280;52283;49.292;10.572;2022-07-21T08:11:15;97013.56;;;20.17;90.09
65614;BME280;52283;49.292;10.572;2022-07-21T08:13:42;97011.34;;;20.44;89.66
65614;BME280;52283;49.292;10.572;2022-07-21T08:16:09;97017.13;;;20.38;88.64
65614;BME280;52283;49.292;10.572;2022-07-21T08:18:37;97017.03;;;21.08;84.41
65614;BME280;52283;49.292;10.572;2022-07-21T08:21:04;97016.56;;;20.60;85.76
65614;BME280;52283;49.292;10.572;2022-07-21T08:23:30;97016.53;;;20.89;84.40
65614;BME280;52283;49.292;10.572;2022-07-21T08:25:57;97018.91;;;20.41;86.93
65614;BME280;52283;49.292;10.572;2022-07-21T08:28:25;97018.03;;;20.54;87.00
65614;BME280;52283;49.292;10.572;2022-07-21T08:30:52;97018.84;;;20.98;84.71
65614;BME280;52283;49.292;10.572;2022-07-21T08:33:18;97013.66;;;21.84;78.14
65614;BME280;52283;49.292;10.572;2022-07-21T08:35:45;97018.72;;;21.55;80.60
65614;BME280;52283;49.292;10.572;2022-07-21T08:38:11;97024.25;;;21.17;83.01
65614;BME280;52283;49.292;10.572;2022-07-21T08:40:40;97011.69;;;21.48;80.49
65614;BME280;52283;49.292;10.572;2022-07-21T08:43:08;97016.19;;;20.92;84.02
65614;BME280;52283;49.292;10.572;2022-07-21T08:45:36;97026.25;;;21.01;83.51
65614;BME280;52283;49.292;10.572;2022-07-21T08:48:03;97023.41;;;21.37;81.32
65614;BME280;52283;49.292;10.572;2022-07-21T08:50:34;97010.63;;;21.23;79.05
65614;BME280;52283;49.292;10.572;2022-07-21T08:53:01;97026.03;;;20.91;84.25
65614;BME280;52283;49.292;10.572;2022-07-21T08:55:28;97023.66;;;20.75;84.09
65614;BME280;52283;49.292;10.572;2022-07-21T08:57:55;97030.59;;;21.30;79.07
65614;BME280;52283;49.292;10.572;2022-07-21T09:00:22;97022.81;;;20.95;80.23
65614;BME280;52283;49.292;10.572;2022-07-21T09:03:07;97027.94;;;22.30;76.00
65614;BME280;52283;49.292;10.572;2022-07-21T09:05:34;97013.41;;;23.04;69.72
65614;BME280;52283;49.292;10.572;2022-07-21T09:10:29;97013.88;;;22.55;67.99
65614;BME280;52283;49.292;10.572;2022-07-21T09:12:58;97022.03;;;22.43;68.55
65614;BME280;52283;49.292;10.572;2022-07-21T09:15:26;97027.19;;;22.21;71.56
65614;BME280;52283;49.292;10.572;2022-07-21T09:18:06;97026.06;;;22.09;70.67
65614;BME280;52283;49.292;10.572;2022-07-21T09:20:34;97024.63;;;21.72;71.83
65614;BME280;52283;49.292;10.572;2022-07-21T09:23:01;97023.84;;;21.64;72.03
65614;BME280;52283;49.292;10.572;2022-07-21T09:25:36;97028.44;;;21.82;72.11
65614;BME280;52283;49.292;10.572;2022-07-21T09:28:14;97020.28;;;22.78;67.61
65614;BME280;52283;49.292;10.572;2022-07-21T09:30:55;97020.09;;;22.68;65.61
65614;BME280;52283;49.292;10.572;2022-07-21T09:33:24;97017.81;;;21.83;69.29
65614;BME280;52283;49.292;10.572;2022-07-21T09:35:55;97020.47;;;21.73;68.99
65614;BME280;52283;49.292;10.572;2022-07-21T09:38:22;97016.44;;;21.61;70.31
65614;BME280;52283;49.292;10.572;2022-07-21T09:40:49;97021.75;;;21.49;70.53
65614;BME280;52283;49.292;10.572;2022-07-21T09:43:31;97032.00;;;21.52;71.54
65614;BME280;52283;49.292;10.572;2022-07-21T09:46:03;97032.22;;;21.85;68.50
65614;BME280;52283;49.292;10.572;2022-07-21T09:48:36;97023.72;;;22.76;64.81
65614;BME280;52283;49.292;10.572;2022-07-21T09:51:23;97011.28;;;23.12;61.14
65614;BME280;52283;49.292;10.572;2022-07-21T09:53:53;97018.41;;;22.65;65.95
65614;BME280;52283;49.292;10.572;2022-07-21T09:56:20;97001.41;;;23.53;62.40
65614;BME280;52283;49.292;10.572;2022-07-21T09:58:49;97005.63;;;23.45;61.11
65614;BME280;52283;49.292;10.572;2022-07-21T10:01:16;97006.53;;;23.87;58.95
65614;BME280;52283;49.292;10.572;2022-07-21T10:03:45;97003.59;;;23.70;57.50
65614;BME280;52283;49.292;10.572;2022-07-21T10:06:15;96994.44;;;23.71;57.32
65614;BME280;52283;49.292;10.572;2022-07-21T10:08:42;96998.59;;;24.28;55.76
65614;BME280;52283;49.292;10.572;2022-07-21T10:11:09;97006.31;;;24.43;53.54
65614;BME280;52283;49.292;10.572;2022-07-21T10:13:37;96996.25;;;24.76;50.66
65614;BME280;52283;49.292;10.572;2022-07-21T10:16:05;97006.81;;;23.74;54.38
65614;BME280;52283;49.292;10.572;2022-07-21T10:18:35;96997.56;;;23.91;52.99
65614;BME280;52283;49.292;10.572;2022-07-21T10:21:14;97001.25;;;24.09;52.00
65614;BME280;52283;49.292;10.572;2022-07-21T10:23:42;96998.69;;;24.62;51.74
65614;BME280;52283;49.292;10.572;2022-07-21T10:26:11;96998.53;;;24.60;51.29
65614;BME280;52283;49.292;10.572;2022-07-21T10:28:38;96997.28;;;24.88;51.91
65614;BME280;52283;49.292;10.572;2022-07-21T10:31:16;97001.34;;;25.03;50.90
65614;BME280;52283;49.292;10.572;2022-07-21T10:33:53;96994.03;;;25.09;52.39
65614;BME280;52283;49.292;10.572;2022-07-21T10:36:41;96992.06;;;24.60;53.07
65614;BME280;52283;49.292;10.572;2022-07-21T10:39:23;96992.66;;;23.84;53.02
65614;BME280;52283;49.292;10.572;2022-07-21T10:41:51;96998.59;;;24.53;51.93
65614;BME280;52283;49.292;10.572;2022-07-21T10:44:37;96995.00;;;24.70;51.96
65614;BME280;52283;49.292;10.572;2022-07-21T10:47:06;96996.88;;;23.83;53.63
65614;BME280;52283;49.292;10.572;2022-07-21T10:49:51;97001.97;;;23.59;55.50
65614;BME280;52283;49.292;10.572;2022-07-21T10:53:00;97001.88;;;23.34;56.71
65614;BME280;52283;49.292;10.572;2022-07-21T10:55:28;96992.22;;;24.62;52.81
65614;BME280;52283;49.292;10.572;2022-07-21T10:58:13;96982.25;;;24.28;53.97
65614;BME280;52283;49.292;10.572;2022-07-21T11:00:48;96993.06;;;24.72;51.65
65614;BME280;52283;49.292;10.572;2022-07-21T11:03:21;96993.00;;;24.62;48.10
65614;BME280;52283;49.292;10.572;2022-07-21T11:06:22;96981.03;;;24.39;48.98
65614;BME280;52283;49.292;10.572;2022-07-21T11:08:52;96966.59;;;24.37;47.94
65614;BME280;52283;49.292;10.572;2022-07-21T11:11:21;96968.69;;;25.23;46.52
65614;BME280;52283;49.292;10.572;2022-07-21T11:14:02;96965.25;;;25.25;44.95
65614;BME280;52283;49.292;10.572;2022-07-21T11:19:39;96960.44;;;25.81;44.73
65614;BME280;52283;49.292;10.572;2022-07-21T11:22:09;96971.81;;;25.98;44.89
65614;BME280;52283;49.292;10.572;2022-07-21T11:24:38;96967.06;;;25.30;44.62
65614;BME280;52283;49.292;10.572;2022-07-21T11:27:07;96956.06;;;25.26;46.04
65614;BME280;52283;49.292;10.572;2022-07-21T11:29:36;96950.34;;;25.26;46.42
65614;BME280;52283;49.292;10.572;2022-07-21T11:32:04;96949.34;;;25.14;46.88
65614;BME280;52283;49.292;10.572;2022-07-21T11:34:38;96945.22;;;25.25;46.63
65614;BME280;52283;49.292;10.572;2022-07-21T11:37:05;96928.09;;;24.73;46.93
65614;BME280;52283;49.292;10.572;2022-07-21T11:39:32;96936.41;;;24.44;47.42
65614;BME280;52283;49.292;10.572;2022-07-21T11:42:03;96943.41;;;25.73;45.09
65614;BME280;52283;49.292;10.572;2022-07-21T11:44:31;96939.13;;;25.65;44.97
65614;BME280;52283;49.292;10.572;2022-07-21T11:47:00;96918.94;;;25.36;44.49
65614;BME280;52283;49.292;10.572;2022-07-21T11:49:27;96931.56;;;25.87;44.62
65614;BME280;52283;49.292;10.572;2022-07-21T11:51:55;96929.75;;;26.37;43.23
65614;BME280;52283;49.292;10.572;2022-07-21T11:54:26;96932.03;;;26.02;42.65
65614;BME280;52283;49.292;10.572;2022-07-21T11:56:53;96920.72;;;25.31;44.17
65614;BME280;52283;49.292;10.572;2022-07-21T11:59:22;96924.94;;;26.40;42.38
65614;BME280;52283;49.292;10.572;2022-07-21T12:01:54;96927.84;;;26.03;43.26
65614;BME280;52283;49.292;10.572;2022-07-21T12:04:39;96926.97;;;25.20;45.88
65614;BME280;52283;49.292;10.572;2022-07-21T12:07:11;96927.78;;;25.30;45.67
65614;BME280;52283;49.292;10.572;2022-07-21T12:09:39;96927.94;;;24.71;46.50
65614;BME280;52283;49.292;10.572;2022-07-21T12:12:06;96925.75;;;24.61;47.14
65614;BME280;52283;49.292;10.572;2022-07-21T12:14:47;96937.06;;;24.35;47.98
65614;BME280;52283;49.292;10.572;2022-07-21T12:17:16;96926.56;;;24.89;47.04
65614;BME280;52283;49.292;10.572;2022-07-21T12:19:43;96919.09;;;25.38;45.98
65614;BME280;52283;49.292;10.572;2022-07-21T12:22:10;96918.44;;;25.57;45.54
65614;BME280;52283;49.292;10.572;2022-07-21T12:24:52;96920.75;;;26.70;44.05
65614;BME280;52283;49.292;10.572;2022-07-21T12:27:20;96912.91;;;27.09;42.69
65614;BME280;52283;49.292;10.572;2022-07-21T12:29:48;96921.13;;;26.28;42.47
65614;BME280;52283;49.292;10.572;2022-07-21T12:32:40;96908.00;;;25.78;43.89
65614;BME280;52283;49.292;10.572;2022-07-21T12:35:17;96930.78;;;25.59;44.70
65614;BME280;52283;49.292;10.572;2022-07-21T12:38:02;96924.88;;;25.20;45.33
65614;BME280;52283;49.292;10.572;2022-07-21T12:40:30;96922.38;;;24.73;46.52
65614;BME280;52283;49.292;10.572;2022-07-21T12:43:11;96922.53;;;25.09;45.91
65614;BME280;52283;49.292;10.572;2022-07-21T12:45:48;96931.31;;;24.59;46.38
65614;BME280;52283;49.292;10.572;2022-07-21T12:48:17;96913.44;;;25.20;45.33
65614;BME280;52283;49.292;10.572;2022-07-21T12:51:01;96926.41;;;25.58;45.02
65614;BME280;52283;49.292;10.572;2022-07-21T12:53:28;96920.44;;;25.37;44.78
65614;BME280;52283;49.292;10.572;2022-07-21T12:55:55;96917.47;;;26.08;43.73